sensor_id;sensor_type;location;lat;lon;timestamp;pressure;altitude;pressure_sealevel;temperature;humidity
41800;BME280;27468;47.460;19.034;2023-02-18T00:01:29;100685.22;;;10.87;70.68
41800;BME280;27468;47.460;19.034;2023-02-18T00:03:56;100688.69;;;10.91;70.76
41800;BME280;27468;47.460;19.034;2023-02-18T00:06:28;100686.00;;;10.94;71.03
41800;BME280;27468;47.460;19.034;2023-02-18T00:08:54;100688.59;;;10.96;70.92
41800;BME280;27468;47.460;19.034;2023-02-18T00:11:21;100682.38;;;10.98;71.04
41800;BME280;27468;47.460;19.034;2023-02-18T00:13:52;100686.75;;;10.99;71.02
41800;BME280;27468;47.460;19.034;2023-02-18T00:16:18;100682.31;;;11.03;70.97
41800;BME280;27468;47.460;19.034;2023-02-18T00:18:43;100676.94;;;11.07;71.53
41800;BME280;27468;47.460;19.034;2023-02-18T00:21:09;100668.22;;;11.04;71.22
41800;BME280;27468;47.460;19.034;2023-02-18T00:23:34;100658.63;;;11.00;71.43
41800;BME280;27468;47.460;19.034;2023-02-18T00:26:04;100675.91;;;11.17;71.61
41800;BME280;27468;47.460;19.034;2023-02-18T00:28:31;100668.97;;;11.12;71.47
41800;BME280;27468;47.460;19.034;2023-02-18T00:30:56;100663.69;;;11.12;71.68
41800;BME280;27468;47.460;19.034;2023-02-18T00:33:22;100656.59;;;11.15;71.96
41800;BME280;27468;47.460;19.034;2023-02-18T00:35:48;100651.28;;;11.17;72.31
41800;BME280;27468;47.460;19.034;2023-02-18T00:38:13;100660.66;;;11.33;72.51
41800;BME280;27468;47.460;19.034;2023-02-18T00:40:39;100664.13;;;11.37;72.37
41800;BME280;27468;47.460;19.034;2023-02-18T00:43:06;100652.63;;;11.39;72.37
41800;BME280;27468;47.460;19.034;2023-02-18T00:45:31;100654.22;;;11.49;71.99
41800;BME280;27468;47.460;19.034;2023-02-18T00:47:57;100669.91;;;11.55;71.98
41800;BME280;27468;47.460;19.034;2023-02-18T00:50:22;100654.91;;;11.57;71.87
41800;BME280;27468;47.460;19.034;2023-02-18T00:52:48;100562.47;;;11.14;72.09
41800;BME280;27468;47.460;19.034;2023-02-18T00:55:13;100619.06;;;11.46;71.80
41800;BME280;27468;47.460;19.034;2023-02-18T00:57:39;100641.50;;;11.68;71.65
41800;BME280;27468;47.460;19.034;2023-02-18T01:00:06;100643.19;;;11.71;71.71
41800;BME280;27468;47.460;19.034;2023-02-18T01:02:32;100623.13;;;11.62;71.56
41800;BME280;27468;47.460;19.034;2023-02-18T01:04:57;100625.63;;;11.68;71.83
41800;BME280;27468;47.460;19.034;2023-02-18T01:07:23;100632.66;;;11.69;71.74
41800;BME280;27468;47.460;19.034;2023-02-18T01:09:48;100628.16;;;11.74;71.48
41800;BME280;27468;47.460;19.034;2023-02-18T01:12:14;100641.13;;;11.88;71.22
41800;BME280;27468;47.460;19.034;2023-02-18T01:14:40;100618.28;;;11.85;71.38
41800;BME280;27468;47.460;19.034;2023-02-18T01:17:06;100630.44;;;11.93;71.17
41800;BME280;27468;47.460;19.034;2023-02-18T01:19:32;100621.59;;;11.95;71.10
41800;BME280;27468;47.460;19.034;2023-02-18T01:21:57;100616.31;;;11.95;71.14
41800;BME280;27468;47.460;19.034;2023-02-18T01:24:23;100610.22;;;11.92;70.81
41800;BME280;27468;47.460;19.034;2023-02-18T01:26:48;100589.25;;;11.84;70.78
41800;BME280;27468;47.460;19.034;2023-02-18T01:29:14;100618.84;;;12.00;70.72
41800;BME280;27468;47.460;19.034;2023-02-18T01:31:39;100616.09;;;12.04;70.68
41800;BME280;27468;47.460;19.034;2023-02-18T01:34:05;100613.44;;;12.06;70.26
41800;BME280;27468;47.460;19.034;2023-02-18T01:36:30;100617.72;;;12.11;70.03
41800;BME280;27468;47.460;19.034;2023-02-18T01:38:56;100599.25;;;12.10;70.02
41800;BME280;27468;47.460;19.034;2023-02-18T01:41:22;100589.75;;;12.01;70.00
41800;BME280;27468;47.460;19.034;2023-02-18T01:43:48;100606.97;;;12.17;69.57
41800;BME280;27468;47.460;19.034;2023-02-18T01:46:18;100572.19;;;11.99;69.55
41800;BME280;27468;47.460;19.034;2023-02-18T01:48:54;100600.75;;;12.20;69.38
41800;BME280;27468;47.460;19.034;2023-02-18T01:51:33;100572.84;;;12.08;69.00
41800;BME280;27468;47.460;19.034;2023-02-18T01:54:02;100598.91;;;12.23;69.07
41800;BME280;27468;47.460;19.034;2023-02-18T01:56:41;100599.81;;;12.22;68.80
41800;BME280;27468;47.460;19.034;2023-02-18T01:59:12;100605.72;;;12.34;68.48
41800;BME280;27468;47.460;19.034;2023-02-18T02:01:42;100594.97;;;12.41;68.05
41800;BME280;27468;47.460;19.034;2023-02-18T02:04:08;100597.50;;;12.46;67.31
41800;BME280;27468;47.460;19.034;2023-02-18T02:06:33;100590.97;;;12.61;65.96
41800;BME280;27468;47.460;19.034;2023-02-18T02:09:02;100580.25;;;12.67;65.68
41800;BME280;27468;47.460;19.034;2023-02-18T02:22:19;100593.50;;;13.32;62.81
41800;BME280;27468;47.460;19.034;2023-02-18T02:35:53;100568.47;;;13.43;61.47
41800;BME280;27468;47.460;19.034;2023-02-18T02:38:43;100521.88;;;13.36;60.80
41800;BME280;27468;47.460;19.034;2023-02-18T02:46:35;100570.16;;;13.77;60.35
41800;BME280;27468;47.460;19.034;2023-02-18T02:49:56;100580.97;;;13.69;60.52
41800;BME280;27468;47.460;19.034;2023-02-18T02:52:06;100561.16;;;13.82;59.77
41800;BME280;27468;47.460;19.034;2023-02-18T02:54:33;100518.97;;;13.45;60.10
41800;BME280;27468;47.460;19.034;2023-02-18T02:57:40;100598.25;;;13.82;59.88
41800;BME280;27468;47.460;19.034;2023-02-18T02:59:59;100569.88;;;13.86;59.39
41800;BME280;27468;47.460;19.034;2023-02-18T03:11:03;100575.59;;;14.00;58.95
41800;BME280;27468;47.460;19.034;2023-02-18T03:16:38;100571.56;;;13.87;59.42
41800;BME280;27468;47.460;19.034;2023-02-18T03:19:33;100556.13;;;13.73;59.42
41800;BME280;27468;47.460;19.034;2023-02-18T03:21:58;100590.72;;;13.97;59.40
41800;BME280;27468;47.460;19.034;2023-02-18T03:24:29;100558.00;;;13.70;59.35
41800;BME280;27468;47.460;19.034;2023-02-18T03:27:02;100548.22;;;13.72;59.18
41800;BME280;27468;47.460;19.034;2023-02-18T03:29:29;100570.97;;;13.79;59.48
41800;BME280;27468;47.460;19.034;2023-02-18T03:31:59;100530.84;;;13.62;59.49
41800;BME280;27468;47.460;19.034;2023-02-18T03:34:34;100583.00;;;13.89;59.45
41800;BME280;27468;47.460;19.034;2023-02-18T03:37:01;100571.56;;;13.87;59.52
41800;BME280;27468;47.460;19.034;2023-02-18T03:39:29;100572.63;;;13.83;59.58
41800;BME280;27468;47.460;19.034;2023-02-18T03:41:55;100597.03;;;13.93;59.63
41800;BME280;27468;47.460;19.034;2023-02-18T03:44:23;100592.16;;;13.79;59.92
41800;BME280;27468;47.460;19.034;2023-02-18T03:46:49;100543.63;;;13.47;60.08
41800;BME280;27468;47.460;19.034;2023-02-18T03:49:15;100606.16;;;13.84;60.06
41800;BME280;27468;47.460;19.034;2023-02-18T03:51:40;100600.94;;;13.81;60.38
41800;BME280;27468;47.460;19.034;2023-02-18T03:54:07;100602.16;;;13.69;60.62
41800;BME280;27468;47.460;19.034;2023-02-18T03:56:33;100578.50;;;13.63;60.48
41800;BME280;27468;47.460;19.034;2023-02-18T03:58:59;100562.03;;;13.52;60.64
41800;BME280;27468;47.460;19.034;2023-02-18T04:01:24;100610.19;;;13.66;60.75
41800;BME280;27468;47.460;19.034;2023-02-18T04:03:50;100584.94;;;13.54;60.71
41800;BME280;27468;47.460;19.034;2023-02-18T04:06:15;100615.50;;;13.66;61.04
41800;BME280;27468;47.460;19.034;2023-02-18T04:08:41;100606.16;;;13.53;61.16
41800;BME280;27468;47.460;19.034;2023-02-18T04:11:06;100616.63;;;13.58;61.42
41800;BME280;27468;47.460;19.034;2023-02-18T04:13:32;100614.59;;;13.67;61.35
41800;BME280;27468;47.460;19.034;2023-02-18T04:15:57;100596.38;;;13.55;61.57
41800;BME280;27468;47.460;19.034;2023-02-18T04:18:22;100589.41;;;13.52;61.47
41800;BME280;27468;47.460;19.034;2023-02-18T04:20:48;100559.16;;;13.29;61.72
41800;BME280;27468;47.460;19.034;2023-02-18T04:23:14;100626.84;;;13.71;61.62
41800;BME280;27468;47.460;19.034;2023-02-18T04:25:39;100623.38;;;13.69;61.75
41800;BME280;27468;47.460;19.034;2023-02-18T04:28:05;100593.91;;;13.49;61.93
41800;BME280;27468;47.460;19.034;2023-02-18T04:30:31;100629.66;;;13.65;61.94
41800;BME280;27468;47.460;19.034;2023-02-18T04:32:57;100588.84;;;13.41;62.01
41800;BME280;27468;47.460;19.034;2023-02-18T04:35:22;100625.44;;;13.58;62.09
41800;BME280;27468;47.460;19.034;2023-02-18T04:37:48;100617.63;;;13.53;62.19
41800;BME280;27468;47.460;19.034;2023-02-18T04:40:14;100636.22;;;13.52;62.49
41800;BME280;27468;47.460;19.034;2023-02-18T04:42:39;100633.66;;;13.49;62.53
41800;BME280;27468;47.460;19.034;2023-02-18T04:45:05;100611.00;;;13.37;62.43
41800;BME280;27468;47.460;19.034;2023-02-18T04:47:30;100613.75;;;13.34;62.68
41800;BME280;27468;47.460;19.034;2023-02-18T04:49:56;100599.00;;;13.26;63.00
41800;BME280;27468;47.460;19.034;2023-02-18T04:52:21;100579.16;;;13.08;63.30
41800;BME280;27468;47.460;19.034;2023-02-18T04:54:47;100648.84;;;13.42;63.78
41800;BME280;27468;47.460;19.034;2023-02-18T04:57:12;100628.00;;;13.29;64.31
41800;BME280;27468;47.460;19.034;2023-02-18T04:59:38;100611.47;;;13.22;64.44
41800;BME280;27468;47.460;19.034;2023-02-18T05:02:03;100658.59;;;13.40;64.84
41800;BME280;27468;47.460;19.034;2023-02-18T05:04:29;100608.97;;;13.14;64.57
41800;BME280;27468;47.460;19.034;2023-02-18T05:06:54;100657.88;;;13.34;64.47
41800;BME280;27468;47.460;19.034;2023-02-18T05:09:20;100607.19;;;13.16;64.36
41800;BME280;27468;47.460;19.034;2023-02-18T05:11:45;100657.69;;;13.41;64.20
41800;BME280;27468;47.460;19.034;2023-02-18T05:14:12;100643.09;;;13.27;64.51
41800;BME280;27468;47.460;19.034;2023-02-18T05:16:37;100669.34;;;13.34;64.69
41800;BME280;27468;47.460;19.034;2023-02-18T05:19:03;100671.88;;;13.39;64.59
41800;BME280;27468;47.460;19.034;2023-02-18T05:21:29;100648.59;;;13.19;64.91
41800;BME280;27468;47.460;19.034;2023-02-18T05:23:54;100607.75;;;12.94;64.74
41800;BME280;27468;47.460;19.034;2023-02-18T05:26:20;100668.00;;;13.19;64.50
41800;BME280;27468;47.460;19.034;2023-02-18T05:28:46;100675.81;;;13.24;64.45
41800;BME280;27468;47.460;19.034;2023-02-18T05:31:11;100662.78;;;13.15;64.67
41800;BME280;27468;47.460;19.034;2023-02-18T05:33:36;100654.09;;;13.10;64.87
41800;BME280;27468;47.460;19.034;2023-02-18T05:36:02;100652.63;;;12.98;65.10
41800;BME280;27468;47.460;19.034;2023-02-18T05:38:27;100674.25;;;13.15;65.49
41800;BME280;27468;47.460;19.034;2023-02-18T05:40:54;100701.31;;;13.28;65.53
41800;BME280;27468;47.460;19.034;2023-02-18T05:43:19;100644.72;;;12.97;65.28
41800;BME280;27468;47.460;19.034;2023-02-18T05:45:45;100707.41;;;13.30;65.30
41800;BME280;27468;47.460;19.034;2023-02-18T05:48:10;100685.75;;;13.16;65.41
41800;BME280;27468;47.460;19.034;2023-02-18T05:50:36;100650.09;;;12.94;65.56
41800;BME280;27468;47.460;19.034;2023-02-18T05:53:01;100702.53;;;13.13;65.58
41800;BME280;27468;47.460;19.034;2023-02-18T05:55:27;100659.78;;;12.95;65.67
41800;BME280;27468;47.460;19.034;2023-02-18T05:57:52;100714.03;;;13.12;65.59
41800;BME280;27468;47.460;19.034;2023-02-18T06:00:18;100704.50;;;13.05;65.67
41800;BME280;27468;47.460;19.034;2023-02-18T06:02:43;100753.47;;;13.25;65.68
41800;BME280;27468;47.460;19.034;2023-02-18T06:05:10;100734.03;;;13.26;65.31
41800;BME280;27468;47.460;19.034;2023-02-18T06:07:36;100689.94;;;12.87;65.77
41800;BME280;27468;47.460;19.034;2023-02-18T06:10:03;100689.03;;;12.88;65.99
41800;BME280;27468;47.460;19.034;2023-02-18T06:12:28;100751.06;;;13.14;66.05
41800;BME280;27468;47.460;19.034;2023-02-18T06:14:54;100690.88;;;12.85;65.95
41800;BME280;27468;47.460;19.034;2023-02-18T06:17:19;100716.34;;;12.90;65.79
41800;BME280;27468;47.460;19.034;2023-02-18T06:19:47;100760.84;;;13.10;65.82
41800;BME280;27468;47.460;19.034;2023-02-18T06:22:13;100724.28;;;12.90;65.73
41800;BME280;27468;47.460;19.034;2023-02-18T06:24:38;100760.22;;;12.99;65.48
41800;BME280;27468;47.460;19.034;2023-02-18T06:27:04;100742.81;;;12.89;65.49
41800;BME280;27468;47.460;19.034;2023-02-18T06:29:30;100775.88;;;13.10;65.29
41800;BME280;27468;47.460;19.034;2023-02-18T06:31:59;100771.75;;;12.97;65.68
41800;BME280;27468;47.460;19.034;2023-02-18T06:34:25;100786.50;;;13.08;67.87
41800;BME280;27468;47.460;19.034;2023-02-18T06:36:51;100744.00;;;12.76;70.42
41800;BME280;27468;47.460;19.034;2023-02-18T06:39:17;100769.31;;;12.87;70.69
41800;BME280;27468;47.460;19.034;2023-02-18T06:41:42;100762.38;;;12.83;70.96
41800;BME280;27468;47.460;19.034;2023-02-18T06:44:08;100723.13;;;12.65;71.17
41800;BME280;27468;47.460;19.034;2023-02-18T06:46:33;100764.84;;;12.91;70.65
41800;BME280;27468;47.460;19.034;2023-02-18T06:48:59;100753.78;;;12.72;70.97
41800;BME280;27468;47.460;19.034;2023-02-18T06:51:24;100701.50;;;12.46;70.80
41800;BME280;27468;47.460;19.034;2023-02-18T06:53:50;100750.25;;;12.73;70.72
41800;BME280;27468;47.460;19.034;2023-02-18T06:56:16;100748.66;;;12.66;70.92
41800;BME280;27468;47.460;19.034;2023-02-18T06:58:41;100719.94;;;12.49;71.34
41800;BME280;27468;47.460;19.034;2023-02-18T07:01:07;100788.81;;;12.83;71.46
41800;BME280;27468;47.460;19.034;2023-02-18T07:03:33;100706.88;;;12.43;71.50
41800;BME280;27468;47.460;19.034;2023-02-18T07:05:58;100747.47;;;12.79;71.46
41800;BME280;27468;47.460;19.034;2023-02-18T07:08:24;100685.00;;;12.35;71.18
41800;BME280;27468;47.460;19.034;2023-02-18T07:10:49;100780.78;;;12.88;71.61
41800;BME280;27468;47.460;19.034;2023-02-18T07:13:15;100724.91;;;12.65;71.47
41800;BME280;27468;47.460;19.034;2023-02-18T07:15:40;100732.06;;;12.60;71.65
41800;BME280;27468;47.460;19.034;2023-02-18T07:18:06;100792.97;;;12.95;71.55
41800;BME280;27468;47.460;19.034;2023-02-18T07:20:32;100784.25;;;12.90;71.69
41800;BME280;27468;47.460;19.034;2023-02-18T07:22:58;100778.97;;;12.90;71.27
41800;BME280;27468;47.460;19.034;2023-02-18T07:25:23;100771.09;;;12.87;71.20
41800;BME280;27468;47.460;19.034;2023-02-18T07:27:49;100800.53;;;13.12;70.92
41800;BME280;27468;47.460;19.034;2023-02-18T07:30:16;100784.63;;;13.12;70.84
41800;BME280;27468;47.460;19.034;2023-02-18T07:32:41;100736.69;;;12.87;69.79
41800;BME280;27468;47.460;19.034;2023-02-18T07:35:07;100759.13;;;13.09;69.57
41800;BME280;27468;47.460;19.034;2023-02-18T07:37:33;100778.25;;;13.22;69.40
41800;BME280;27468;47.460;19.034;2023-02-18T07:39:58;100767.78;;;13.17;69.36
41800;BME280;27468;47.460;19.034;2023-02-18T07:42:24;100728.41;;;13.02;69.17
41800;BME280;27468;47.460;19.034;2023-02-18T07:44:49;100728.97;;;13.15;68.68
41800;BME280;27468;47.460;19.034;2023-02-18T07:47:15;100737.53;;;13.28;68.34
41800;BME280;27468;47.460;19.034;2023-02-18T07:49:44;100745.28;;;13.34;67.94
41800;BME280;27468;47.460;19.034;2023-02-18T07:52:09;100745.88;;;13.45;67.48
41800;BME280;27468;47.460;19.034;2023-02-18T07:54:35;100736.28;;;13.41;67.39
41800;BME280;27468;47.460;19.034;2023-02-18T07:57:00;100754.22;;;13.64;67.30
41800;BME280;27468;47.460;19.034;2023-02-18T07:59:25;100765.50;;;13.72;66.77
41800;BME280;27468;47.460;19.034;2023-02-18T08:01:51;100715.00;;;13.44;66.82
41800;BME280;27468;47.460;19.034;2023-02-18T08:04:16;100747.19;;;13.63;66.91
41800;BME280;27468;47.460;19.034;2023-02-18T08:06:44;100723.34;;;13.63;66.32
41800;BME280;27468;47.460;19.034;2023-02-18T08:09:11;100739.03;;;13.70;66.03
41800;BME280;27468;47.460;19.034;2023-02-18T08:11:36;100763.59;;;13.77;65.63
41800;BME280;27468;47.460;19.034;2023-02-18T08:14:02;100769.59;;;13.83;65.79
41800;BME280;27468;47.460;19.034;2023-02-18T08:16:28;100770.63;;;13.78;65.86
41800;BME280;27468;47.460;19.034;2023-02-18T08:18:53;100765.34;;;13.78;66.00
41800;BME280;27468;47.460;19.034;2023-02-18T08:21:21;100776.53;;;13.87;65.30
41800;BME280;27468;47.460;19.034;2023-02-18T08:23:47;100787.09;;;13.89;64.97
41800;BME280;27468;47.460;19.034;2023-02-18T08:26:13;100792.97;;;14.00;64.44
41800;BME280;27468;47.460;19.034;2023-02-18T08:28:39;100770.97;;;13.97;63.73
41800;BME280;27468;47.460;19.034;2023-02-18T08:31:05;100740.88;;;13.99;63.46
41800;BME280;27468;47.460;19.034;2023-02-18T08:33:31;100773.06;;;14.16;62.97
41800;BME280;27468;47.460;19.034;2023-02-18T08:35:56;100775.59;;;14.21;62.77
41800;BME280;27468;47.460;19.034;2023-02-18T08:38:23;100771.13;;;14.23;62.59
41800;BME280;27468;47.460;19.034;2023-02-18T08:40:49;100764.78;;;14.29;62.87
41800;BME280;27468;47.460;19.034;2023-02-18T08:43:15;100726.47;;;14.08;62.57
41800;BME280;27468;47.460;19.034;2023-02-18T08:45:42;100767.81;;;14.46;62.32
41800;BME280;27468;47.460;19.034;2023-02-18T08:48:10;100730.38;;;14.26;62.34
41800;BME280;27468;47.460;19.034;2023-02-18T08:50:37;100756.47;;;14.42;61.86
41800;BME280;27468;47.460;19.034;2023-02-18T08:53:03;100768.31;;;14.59;61.61
41800;BME280;27468;47.460;19.034;2023-02-18T08:55:30;100761.50;;;14.50;61.65
41800;BME280;27468;47.460;19.034;2023-02-18T08:57:55;100743.72;;;14.53;61.37
41800;BME280;27468;47.460;19.034;2023-02-18T09:00:21;100762.09;;;14.60;61.19
41800;BME280;27468;47.460;19.034;2023-02-18T09:02:46;100756.84;;;14.58;61.28
41800;BME280;27468;47.460;19.034;2023-02-18T09:05:12;100772.25;;;14.75;61.54
41800;BME280;27468;47.460;19.034;2023-02-18T09:07:39;100773.63;;;14.88;60.98
41800;BME280;27468;47.460;19.034;2023-02-18T09:10:05;100728.56;;;14.57;60.86
41800;BME280;27468;47.460;19.034;2023-02-18T09:12:31;100764.16;;;14.79;60.96
41800;BME280;27468;47.460;19.034;2023-02-18T09:14:56;100767.97;;;14.71;61.40
41800;BME280;27468;47.460;19.034;2023-02-18T09:17:22;100744.59;;;14.54;61.46
41800;BME280;27468;47.460;19.034;2023-02-18T09:19:47;100756.84;;;14.58;60.41
41800;BME280;27468;47.460;19.034;2023-02-18T09:22:13;100765.66;;;14.59;61.45
41800;BME280;27468;47.460;19.034;2023-02-18T09:24:40;100728.19;;;14.41;62.81
41800;BME280;27468;47.460;19.034;2023-02-18T09:27:06;100747.47;;;14.46;63.72
41800;BME280;27468;47.460;19.034;2023-02-18T09:29:31;100742.00;;;14.51;63.55
41800;BME280;27468;47.460;19.034;2023-02-18T09:32:01;100737.53;;;14.53;62.30
41800;BME280;27468;47.460;19.034;2023-02-18T09:34:26;100722.06;;;14.38;62.58
41800;BME280;27468;47.460;19.034;2023-02-18T09:36:52;100743.56;;;14.58;62.44
41800;BME280;27468;47.460;19.034;2023-02-18T09:39:18;100675.69;;;14.21;61.36
41800;BME280;27468;47.460;19.034;2023-02-18T09:41:49;100695.81;;;14.29;61.63
41800;BME280;27468;47.460;19.034;2023-02-18T09:49:23;100711.13;;;14.19;61.86
41800;BME280;27468;47.460;19.034;2023-02-18T09:51:50;100700.53;;;14.19;61.59
41800;BME280;27468;47.460;19.034;2023-02-18T09:54:17;100747.41;;;14.48;61.46
41800;BME280;27468;47.460;19.034;2023-02-18T09:56:45;100750.28;;;14.40;61.50
41800;BME280;27468;47.460;19.034;2023-02-18T09:59:17;100716.38;;;14.20;61.72
41800;BME280;27468;47.460;19.034;2023-02-18T10:01:44;100697.06;;;14.17;61.62
41800;BME280;27468;47.460;19.034;2023-02-18T10:04:36;100746.88;;;14.66;60.83
41800;BME280;27468;47.460;19.034;2023-02-18T10:07:05;100704.31;;;14.41;61.06
41800;BME280;27468;47.460;19.034;2023-02-18T10:09:35;100718.00;;;14.56;61.09
41800;BME280;27468;47.460;19.034;2023-02-18T10:12:13;100736.06;;;14.72;60.87
41800;BME280;27468;47.460;19.034;2023-02-18T10:14:48;100727.28;;;14.70;60.32
41800;BME280;27468;47.460;19.034;2023-02-18T10:17:15;100703.38;;;14.70;60.05
41800;BME280;27468;47.460;19.034;2023-02-18T10:19:43;100739.09;;;14.88;59.65
41800;BME280;27468;47.460;19.034;2023-02-18T10:22:12;100679.25;;;14.50;59.45
41800;BME280;27468;47.460;19.034;2023-02-18T10:24:46;100696.34;;;14.69;58.67
41800;BME280;27468;47.460;19.034;2023-02-18T10:27:20;100717.25;;;14.80;58.66
41800;BME280;27468;47.460;19.034;2023-02-18T10:29:47;100705.22;;;14.68;58.84
41800;BME280;27468;47.460;19.034;2023-02-18T10:32:32;100653.06;;;14.39;59.06
41800;BME280;27468;47.460;19.034;2023-02-18T10:35:34;100736.94;;;15.01;58.97
41800;BME280;27468;47.460;19.034;2023-02-18T10:41:33;100727.56;;;15.15;58.83
41800;BME280;27468;47.460;19.034;2023-02-18T10:44:12;100686.34;;;15.04;58.64
41800;BME280;27468;47.460;19.034;2023-02-18T10:46:53;100693.91;;;15.16;58.54
41800;BME280;27468;47.460;19.034;2023-02-18T10:51:53;100708.00;;;15.44;58.40
41800;BME280;27468;47.460;19.034;2023-02-18T10:54:25;100704.84;;;15.60;58.12
41800;BME280;27468;47.460;19.034;2023-02-18T10:56:57;100705.81;;;15.57;58.06
41800;BME280;27468;47.460;19.034;2023-02-18T10:59:31;100632.88;;;15.14;57.96
41800;BME280;27468;47.460;19.034;2023-02-18T11:02:04;100702.88;;;15.65;57.85
41800;BME280;27468;47.460;19.034;2023-02-18T11:04:39;100689.09;;;15.78;57.56
41800;BME280;27468;47.460;19.034;2023-02-18T11:07:10;100663.38;;;15.79;57.20
41800;BME280;27468;47.460;19.034;2023-02-18T11:14:49;100678.69;;;15.96;56.34
41800;BME280;27468;47.460;19.034;2023-02-18T11:17:30;100690.59;;;15.85;56.36
41800;BME280;27468;47.460;19.034;2023-02-18T11:20:01;100667.75;;;15.80;56.79
41800;BME280;27468;47.460;19.034;2023-02-18T11:22:29;100629.19;;;15.68;56.78
41800;BME280;27468;47.460;19.034;2023-02-18T11:24:59;100631.09;;;15.65;57.21
41800;BME280;27468;47.460;19.034;2023-02-18T11:29:59;100651.53;;;15.88;56.77
41800;BME280;27468;47.460;19.034;2023-02-18T11:32:27;100666.28;;;15.96;56.54
41800;BME280;27468;47.460;19.034;2023-02-18T11:34:54;100640.19;;;15.82;56.65
41800;BME280;27468;47.460;19.034;2023-02-18T11:37:20;100651.13;;;15.98;56.90
41800;BME280;27468;47.460;19.034;2023-02-18T11:39:49;100642.00;;;16.05;56.58
41800;BME280;27468;47.460;19.034;2023-02-18T11:42:18;100638.25;;;16.11;56.74
41800;BME280;27468;47.460;19.034;2023-02-18T11:45:04;100616.97;;;15.88;56.96
41800;BME280;27468;47.460;19.034;2023-02-18T11:47:33;100625.34;;;16.00;57.21
41800;BME280;27468;47.460;19.034;2023-02-18T11:52:45;100618.81;;;16.09;57.01
41800;BME280;27468;47.460;19.034;2023-02-18T11:55:21;100580.72;;;16.08;56.78
41800;BME280;27468;47.460;19.034;2023-02-18T11:57:54;100623.16;;;16.33;56.37
41800;BME280;27468;47.460;19.034;2023-02-18T12:00:29;100517.38;;;15.73;56.39
41800;BME280;27468;47.460;19.034;2023-02-18T12:03:02;100608.91;;;16.12;56.16
41800;BME280;27468;47.460;19.034;2023-02-18T12:05:31;100544.78;;;15.75;56.17
41800;BME280;27468;47.460;19.034;2023-02-18T12:08:06;100570.72;;;15.92;55.84
41800;BME280;27468;47.460;19.034;2023-02-18T12:10:49;100558.41;;;15.89;55.75
41800;BME280;27468;47.460;19.034;2023-02-18T12:13:37;100574.81;;;16.00;55.75
41800;BME280;27468;47.460;19.034;2023-02-18T12:29:49;100564.06;;;16.03;54.25
41800;BME280;27468;47.460;19.034;2023-02-18T12:32:21;100552.25;;;16.10;52.95
41800;BME280;27468;47.460;19.034;2023-02-18T12:37:48;100559.03;;;16.17;53.48
41800;BME280;27468;47.460;19.034;2023-02-18T12:43:31;100544.56;;;16.46;52.52
41800;BME280;27468;47.460;19.034;2023-02-18T13:10:37;100511.47;;;16.32;52.00
41800;BME280;27468;47.460;19.034;2023-02-18T13:13:11;100493.22;;;16.23;52.03
41800;BME280;27468;47.460;19.034;2023-02-18T13:15:42;100440.69;;;16.07;51.80
41800;BME280;27468;47.460;19.034;2023-02-18T13:18:22;100481.72;;;16.22;52.05
41800;BME280;27468;47.460;19.034;2023-02-18T13:20:51;100491.59;;;16.40;52.27
41800;BME280;27468;47.460;19.034;2023-02-18T13:23:30;100494.59;;;16.53;51.89
41800;BME280;27468;47.460;19.034;2023-02-18T13:26:00;100464.97;;;16.40;51.59
41800;BME280;27468;47.460;19.034;2023-02-18T13:28:50;100421.94;;;16.31;51.60
41800;BME280;27468;47.460;19.034;2023-02-18T13:37:10;100438.91;;;16.48;51.19
41800;BME280;27468;47.460;19.034;2023-02-18T13:39:55;100473.06;;;16.59;50.88
41800;BME280;27468;47.460;19.034;2023-02-18T13:47:42;100429.06;;;16.50;50.70
41800;BME280;27468;47.460;19.034;2023-02-18T13:52:45;100447.13;;;16.64;50.98
41800;BME280;27468;47.460;19.034;2023-02-18T13:55:53;100439.19;;;16.63;51.17
41800;BME280;27468;47.460;19.034;2023-02-18T13:58:30;100440.03;;;16.63;51.49
41800;BME280;27468;47.460;19.034;2023-02-18T14:01:05;100434.84;;;16.60;51.41
41800;BME280;27468;47.460;19.034;2023-02-18T14:06:24;100425.94;;;16.81;51.39
41800;BME280;27468;47.460;19.034;2023-02-18T14:09:00;100424.41;;;16.76;51.91
41800;BME280;27468;47.460;19.034;2023-02-18T14:11:38;100409.41;;;16.75;52.06
41800;BME280;27468;47.460;19.034;2023-02-18T14:19:55;100408.53;;;16.93;52.15
41800;BME280;27468;47.460;19.034;2023-02-18T14:25:21;100393.06;;;17.01;51.58
41800;BME280;27468;47.460;19.034;2023-02-18T14:27:51;100361.09;;;16.82;51.78
41800;BME280;27468;47.460;19.034;2023-02-18T14:32:49;100326.69;;;16.78;51.03
41800;BME280;27468;47.460;19.034;2023-02-18T14:49:35;100343.97;;;17.07;50.98
41800;BME280;27468;47.460;19.034;2023-02-18T14:52:03;100325.78;;;16.98;51.06
41800;BME280;27468;47.460;19.034;2023-02-18T14:54:30;100337.00;;;17.04;49.40
41800;BME280;27468;47.460;19.034;2023-02-18T14:57:02;100309.13;;;16.93;49.34
41800;BME280;27468;47.460;19.034;2023-02-18T14:59:39;100373.06;;;17.11;48.50
41800;BME280;27468;47.460;19.034;2023-02-18T15:02:17;100375.38;;;17.00;47.78
41800;BME280;27468;47.460;19.034;2023-02-18T15:04:43;100343.50;;;16.60;48.28
41800;BME280;27468;47.460;19.034;2023-02-18T15:07:10;100369.97;;;16.63;48.54
41800;BME280;27468;47.460;19.034;2023-02-18T15:09:44;100299.75;;;16.26;48.20
41800;BME280;27468;47.460;19.034;2023-02-18T15:12:15;100309.88;;;16.18;47.81
41800;BME280;27468;47.460;19.034;2023-02-18T15:14:42;100352.81;;;16.29;47.96